sensor_id;sensor_type;location;lat;lon;timestamp;P1;durP1;ratioP1;P2;durP2;ratioP2
25319;SDS011;13256;49.012;8.610;2023-08-12T00:00:22;9.38;;;3.30;;
25319;SDS011;13256;49.012;8.610;2023-08-12T00:02:49;4.93;;;2.85;;
25319;SDS011;13256;49.012;8.610;2023-08-12T00:05:19;5.97;;;3.25;;
25319;SDS011;13256;49.012;8.610;2023-08-12T00:07:49;4.88;;;3.30;;
25319;SDS011;13256;49.012;8.610;2023-08-12T00:12:50;5.65;;;3.28;;
25319;SDS011;13256;49.012;8.610;2023-08-12T00:15:17;7.80;;;3.33;;
25319;SDS011;13256;49.012;8.610;2023-08-12T00:17:48;6.27;;;3.07;;
25319;SDS011;13256;49.012;8.610;2023-08-12T00:20:19;6.00;;;3.22;;
25319;SDS011;13256;49.012;8.610;2023-08-12T00:22:46;4.65;;;3.20;;
25319;SDS011;13256;49.012;8.610;2023-08-12T00:25:17;4.32;;;3.75;;
25319;SDS011;13256;49.012;8.610;2023-08-12T00:27:45;5.70;;;3.33;;
25319;SDS011;13256;49.012;8.610;2023-08-12T00:33:04;12.57;;;3.13;;
25319;SDS011;13256;49.012;8.610;2023-08-12T00:35:35;8.77;;;3.35;;
25319;SDS011;13256;49.012;8.610;2023-08-12T00:38:04;5.55;;;3.50;;
25319;SDS011;13256;49.012;8.610;2023-08-12T00:40:34;4.43;;;3.42;;
25319;SDS011;13256;49.012;8.610;2023-08-12T00:45:59;4.25;;;3.15;;
25319;SDS011;13256;49.012;8.610;2023-08-12T00:48:30;10.02;;;3.10;;
25319;SDS011;13256;49.012;8.610;2023-08-12T00:50:59;6.93;;;3.35;;
25319;SDS011;13256;49.012;8.610;2023-08-12T00:53:31;5.40;;;3.25;;
25319;SDS011;13256;49.012;8.610;2023-08-12T00:56:01;6.55;;;3.00;;
25319;SDS011;13256;49.012;8.610;2023-08-12T00:58:36;5.93;;;3.22;;
25319;SDS011;13256;49.012;8.610;2023-08-12T01:01:03;9.18;;;3.17;;
25319;SDS011;13256;49.012;8.610;2023-08-12T01:03:33;6.03;;;2.83;;
25319;SDS011;13256;49.012;8.610;2023-08-12T01:06:09;5.28;;;3.47;;
25319;SDS011;13256;49.012;8.610;2023-08-12T01:08:39;7.55;;;2.97;;
25319;SDS011;13256;49.012;8.610;2023-08-12T01:11:51;6.80;;;3.60;;
25319;SDS011;13256;49.012;8.610;2023-08-12T01:14:35;5.03;;;3.60;;
25319;SDS011;13256;49.012;8.610;2023-08-12T01:17:38;5.95;;;3.45;;
25319;SDS011;13256;49.012;8.610;2023-08-12T01:20:08;5.03;;;3.28;;
25319;SDS011;13256;49.012;8.610;2023-08-12T01:22:38;8.20;;;3.17;;
25319;SDS011;13256;49.012;8.610;2023-08-12T01:25:08;7.43;;;3.42;;
25319;SDS011;13256;49.012;8.610;2023-08-12T01:27:35;3.60;;;2.97;;
25319;SDS011;13256;49.012;8.610;2023-08-12T01:30:09;6.57;;;3.45;;
25319;SDS011;13256;49.012;8.610;2023-08-12T01:35:35;4.95;;;3.00;;
25319;SDS011;13256;49.012;8.610;2023-08-12T01:38:08;4.95;;;3.28;;
25319;SDS011;13256;49.012;8.610;2023-08-12T01:40:40;4.85;;;3.25;;
25319;SDS011;13256;49.012;8.610;2023-08-12T01:43:10;4.97;;;3.50;;
25319;SDS011;13256;49.012;8.610;2023-08-12T01:45:43;3.47;;;2.97;;
25319;SDS011;13256;49.012;8.610;2023-08-12T01:48:11;5.20;;;3.13;;
25319;SDS011;13256;49.012;8.610;2023-08-12T01:50:40;4.78;;;3.38;;
25319;SDS011;13256;49.012;8.610;2023-08-12T01:53:16;4.78;;;3.53;;
25319;SDS011;13256;49.012;8.610;2023-08-12T01:55:43;5.28;;;3.42;;
25319;SDS011;13256;49.012;8.610;2023-08-12T01:58:13;6.30;;;3.03;;
25319;SDS011;13256;49.012;8.610;2023-08-12T02:00:42;4.68;;;2.75;;
25319;SDS011;13256;49.012;8.610;2023-08-12T02:03:13;4.28;;;3.33;;
25319;SDS011;13256;49.012;8.610;2023-08-12T02:05:40;5.10;;;2.97;;
25319;SDS011;13256;49.012;8.610;2023-08-12T02:08:09;3.88;;;3.00;;
25319;SDS011;13256;49.012;8.610;2023-08-12T02:10:40;5.85;;;3.13;;
25319;SDS011;13256;49.012;8.610;2023-08-12T02:13:12;4.65;;;3.00;;
25319;SDS011;13256;49.012;8.610;2023-08-12T02:15:39;5.60;;;2.95;;
25319;SDS011;13256;49.012;8.610;2023-08-12T02:18:14;8.63;;;3.57;;
25319;SDS011;13256;49.012;8.610;2023-08-12T02:20:43;5.80;;;3.22;;
25319;SDS011;13256;49.012;8.610;2023-08-12T02:23:17;3.50;;;2.85;;
25319;SDS011;13256;49.012;8.610;2023-08-12T02:25:48;5.95;;;3.50;;
25319;SDS011;13256;49.012;8.610;2023-08-12T02:28:16;4.18;;;2.85;;
25319;SDS011;13256;49.012;8.610;2023-08-12T02:30:44;4.97;;;3.20;;
25319;SDS011;13256;49.012;8.610;2023-08-12T02:33:14;4.32;;;3.22;;
25319;SDS011;13256;49.012;8.610;2023-08-12T02:35:41;4.47;;;3.22;;
25319;SDS011;13256;49.012;8.610;2023-08-12T02:38:09;6.68;;;3.30;;
25319;SDS011;13256;49.012;8.610;2023-08-12T02:40:37;8.40;;;3.42;;
25319;SDS011;13256;49.012;8.610;2023-08-12T02:43:09;7.70;;;3.55;;
25319;SDS011;13256;49.012;8.610;2023-08-12T02:45:39;6.03;;;3.63;;
25319;SDS011;13256;49.012;8.610;2023-08-12T02:48:10;6.90;;;3.53;;
25319;SDS011;13256;49.012;8.610;2023-08-12T02:50:40;5.15;;;3.30;;
25319;SDS011;13256;49.012;8.610;2023-08-12T02:53:09;7.13;;;3.78;;
25319;SDS011;13256;49.012;8.610;2023-08-12T02:55:41;5.10;;;3.63;;
25319;SDS011;13256;49.012;8.610;2023-08-12T02:58:08;9.63;;;3.67;;
25319;SDS011;13256;49.012;8.610;2023-08-12T03:00:46;5.03;;;3.33;;
25319;SDS011;13256;49.012;8.610;2023-08-12T03:03:17;5.45;;;3.08;;
25319;SDS011;13256;49.012;8.610;2023-08-12T03:05:48;4.97;;;3.55;;
25319;SDS011;13256;49.012;8.610;2023-08-12T03:08:15;4.70;;;3.20;;
25319;SDS011;13256;49.012;8.610;2023-08-12T03:10:57;7.75;;;3.25;;
25319;SDS011;13256;49.012;8.610;2023-08-12T03:13:27;5.32;;;3.30;;
25319;SDS011;13256;49.012;8.610;2023-08-12T03:15:54;5.35;;;3.35;;
25319;SDS011;13256;49.012;8.610;2023-08-12T03:18:26;6.50;;;3.30;;
25319;SDS011;13256;49.012;8.610;2023-08-12T03:20:55;4.93;;;3.22;;
25319;SDS011;13256;49.012;8.610;2023-08-12T03:23:30;5.80;;;3.30;;
25319;SDS011;13256;49.012;8.610;2023-08-12T03:25:59;7.22;;;3.45;;
25319;SDS011;13256;49.012;8.610;2023-08-12T03:28:27;6.47;;;3.15;;
25319;SDS011;13256;49.012;8.610;2023-08-12T03:30:58;4.20;;;3.10;;
25319;SDS011;13256;49.012;8.610;2023-08-12T03:33:30;4.22;;;3.15;;
25319;SDS011;13256;49.012;8.610;2023-08-12T03:36:02;6.03;;;3.40;;
25319;SDS011;13256;49.012;8.610;2023-08-12T03:38:31;6.70;;;2.90;;
25319;SDS011;13256;49.012;8.610;2023-08-12T03:41:27;4.63;;;3.28;;
25319;SDS011;13256;49.012;8.610;2023-08-12T03:44:02;5.95;;;3.33;;
25319;SDS011;13256;49.012;8.610;2023-08-12T03:46:29;4.78;;;3.28;;
25319;SDS011;13256;49.012;8.610;2023-08-12T03:49:01;4.82;;;3.22;;
25319;SDS011;13256;49.012;8.610;2023-08-12T03:51:31;6.15;;;3.20;;
25319;SDS011;13256;49.012;8.610;2023-08-12T03:53:59;4.53;;;3.25;;
25319;SDS011;13256;49.012;8.610;2023-08-12T03:56:27;4.95;;;3.50;;
25319;SDS011;13256;49.012;8.610;2023-08-12T04:01:55;3.83;;;3.30;;
25319;SDS011;13256;49.012;8.610;2023-08-12T04:04:23;4.25;;;3.38;;
25319;SDS011;13256;49.012;8.610;2023-08-12T04:06:53;5.18;;;3.22;;
25319;SDS011;13256;49.012;8.610;2023-08-12T04:12:19;4.85;;;3.20;;
25319;SDS011;13256;49.012;8.610;2023-08-12T04:14:51;5.43;;;3.38;;
25319;SDS011;13256;49.012;8.610;2023-08-12T04:17:18;5.90;;;3.53;;
25319;SDS011;13256;49.012;8.610;2023-08-12T04:19:47;4.03;;;2.90;;
25319;SDS011;13256;49.012;8.610;2023-08-12T04:22:19;5.65;;;3.60;;
25319;SDS011;13256;49.012;8.610;2023-08-12T04:24:50;6.88;;;3.47;;
25319;SDS011;13256;49.012;8.610;2023-08-12T04:27:18;8.98;;;4.00;;
25319;SDS011;13256;49.012;8.610;2023-08-12T04:29:50;5.18;;;3.40;;
25319;SDS011;13256;49.012;8.610;2023-08-12T04:32:18;4.63;;;3.08;;
25319;SDS011;13256;49.012;8.610;2023-08-12T04:34:48;3.65;;;2.85;;
25319;SDS011;13256;49.012;8.610;2023-08-12T04:37:17;5.10;;;3.50;;
25319;SDS011;13256;49.012;8.610;2023-08-12T04:39:45;10.13;;;3.25;;
25319;SDS011;13256;49.012;8.610;2023-08-12T04:42:18;4.93;;;3.40;;
25319;SDS011;13256;49.012;8.610;2023-08-12T04:44:48;5.38;;;3.53;;
25319;SDS011;13256;49.012;8.610;2023-08-12T04:47:17;4.75;;;3.40;;
25319;SDS011;13256;49.012;8.610;2023-08-12T04:49:44;6.18;;;3.00;;
25319;SDS011;13256;49.012;8.610;2023-08-12T04:52:12;6.38;;;3.50;;
25319;SDS011;13256;49.012;8.610;2023-08-12T05:01:02;6.30;;;3.60;;
25319;SDS011;13256;49.012;8.610;2023-08-12T05:03:32;5.22;;;3.53;;
25319;SDS011;13256;49.012;8.610;2023-08-12T05:06:00;6.70;;;3.88;;
25319;SDS011;13256;49.012;8.610;2023-08-12T05:08:30;9.52;;;3.60;;
25319;SDS011;13256;49.012;8.610;2023-08-12T05:11:00;5.22;;;3.22;;
25319;SDS011;13256;49.012;8.610;2023-08-12T05:13:28;7.18;;;4.20;;
25319;SDS011;13256;49.012;8.610;2023-08-12T05:15:57;6.80;;;3.67;;
25319;SDS011;13256;49.012;8.610;2023-08-12T05:18:23;5.32;;;3.55;;
25319;SDS011;13256;49.012;8.610;2023-08-12T05:20:55;5.45;;;3.47;;
25319;SDS011;13256;49.012;8.610;2023-08-12T05:23:22;8.27;;;3.90;;
25319;SDS011;13256;49.012;8.610;2023-08-12T05:25:52;6.20;;;3.70;;
25319;SDS011;13256;49.012;8.610;2023-08-12T05:28:21;5.95;;;3.08;;
25319;SDS011;13256;49.012;8.610;2023-08-12T05:30:55;13.90;;;3.65;;
25319;SDS011;13256;49.012;8.610;2023-08-12T05:33:23;8.85;;;3.78;;
25319;SDS011;13256;49.012;8.610;2023-08-12T05:35:50;6.10;;;3.80;;
25319;SDS011;13256;49.012;8.610;2023-08-12T05:38:18;6.75;;;3.53;;
25319;SDS011;13256;49.012;8.610;2023-08-12T05:40:47;7.63;;;3.33;;
25319;SDS011;13256;49.012;8.610;2023-08-12T05:43:15;4.85;;;3.67;;
25319;SDS011;13256;49.012;8.610;2023-08-12T05:45:48;5.60;;;3.88;;
25319;SDS011;13256;49.012;8.610;2023-08-12T05:48:15;5.65;;;3.85;;
25319;SDS011;13256;49.012;8.610;2023-08-12T05:50:47;4.95;;;3.45;;
25319;SDS011;13256;49.012;8.610;2023-08-12T05:53:18;5.85;;;3.42;;
25319;SDS011;13256;49.012;8.610;2023-08-12T05:55:55;4.68;;;3.38;;
25319;SDS011;13256;49.012;8.610;2023-08-12T05:58:24;6.18;;;3.50;;
25319;SDS011;13256;49.012;8.610;2023-08-12T06:00:57;6.55;;;3.22;;
25319;SDS011;13256;49.012;8.610;2023-08-12T06:03:23;5.53;;;3.20;;
25319;SDS011;13256;49.012;8.610;2023-08-12T06:05:50;4.78;;;3.28;;
25319;SDS011;13256;49.012;8.610;2023-08-12T06:08:21;7.45;;;3.60;;
25319;SDS011;13256;49.012;8.610;2023-08-12T06:10:49;4.57;;;3.33;;
25319;SDS011;13256;49.012;8.610;2023-08-12T06:13:17;5.63;;;3.20;;
25319;SDS011;13256;49.012;8.610;2023-08-12T06:15:46;6.63;;;3.70;;
25319;SDS011;13256;49.012;8.610;2023-08-12T06:18:13;5.72;;;3.50;;
25319;SDS011;13256;49.012;8.610;2023-08-12T06:20:43;4.93;;;3.42;;
25319;SDS011;13256;49.012;8.610;2023-08-12T06:23:11;5.18;;;3.42;;
25319;SDS011;13256;49.012;8.610;2023-08-12T06:25:39;6.32;;;3.53;;
25319;SDS011;13256;49.012;8.610;2023-08-12T06:28:09;5.38;;;3.20;;
25319;SDS011;13256;49.012;8.610;2023-08-12T06:30:38;6.63;;;3.13;;
25319;SDS011;13256;49.012;8.610;2023-08-12T06:33:11;7.78;;;3.25;;
25319;SDS011;13256;49.012;8.610;2023-08-12T06:38:37;4.60;;;3.20;;
25319;SDS011;13256;49.012;8.610;2023-08-12T06:41:06;5.85;;;3.70;;
25319;SDS011;13256;49.012;8.610;2023-08-12T06:43:34;4.30;;;3.45;;
25319;SDS011;13256;49.012;8.610;2023-08-12T06:46:05;5.22;;;3.47;;
25319;SDS011;13256;49.012;8.610;2023-08-12T06:48:33;8.57;;;3.33;;
25319;SDS011;13256;49.012;8.610;2023-08-12T06:51:02;5.90;;;3.58;;
25319;SDS011;13256;49.012;8.610;2023-08-12T06:53:39;6.10;;;3.58;;
25319;SDS011;13256;49.012;8.610;2023-08-12T06:56:12;5.95;;;3.42;;
25319;SDS011;13256;49.012;8.610;2023-08-12T06:58:42;7.70;;;3.38;;
25319;SDS011;13256;49.012;8.610;2023-08-12T07:01:12;6.45;;;3.30;;
25319;SDS011;13256;49.012;8.610;2023-08-12T07:03:45;9.18;;;3.60;;
25319;SDS011;13256;49.012;8.610;2023-08-12T07:06:13;4.82;;;3.45;;
25319;SDS011;13256;49.012;8.610;2023-08-12T07:08:40;4.75;;;3.40;;
25319;SDS011;13256;49.012;8.610;2023-08-12T07:11:06;7.18;;;3.42;;
25319;SDS011;13256;49.012;8.610;2023-08-12T07:13:33;5.07;;;3.05;;
25319;SDS011;13256;49.012;8.610;2023-08-12T07:16:04;4.40;;;3.13;;
25319;SDS011;13256;49.012;8.610;2023-08-12T07:18:35;5.38;;;4.03;;
25319;SDS011;13256;49.012;8.610;2023-08-12T07:21:03;5.93;;;3.47;;
25319;SDS011;13256;49.012;8.610;2023-08-12T07:23:31;7.55;;;3.33;;
25319;SDS011;13256;49.012;8.610;2023-08-12T07:26:04;3.90;;;3.38;;
25319;SDS011;13256;49.012;8.610;2023-08-12T07:28:32;6.13;;;3.53;;
25319;SDS011;13256;49.012;8.610;2023-08-12T07:31:00;10.70;;;3.70;;
25319;SDS011;13256;49.012;8.610;2023-08-12T07:33:28;6.65;;;3.33;;
25319;SDS011;13256;49.012;8.610;2023-08-12T07:35:57;6.90;;;3.20;;
25319;SDS011;13256;49.012;8.610;2023-08-12T07:38:25;5.97;;;3.75;;
25319;SDS011;13256;49.012;8.610;2023-08-12T07:40:57;4.63;;;3.55;;
25319;SDS011;13256;49.012;8.610;2023-08-12T07:43:24;5.80;;;3.47;;
25319;SDS011;13256;49.012;8.610;2023-08-12T07:45:51;8.52;;;3.50;;
25319;SDS011;13256;49.012;8.610;2023-08-12T07:48:39;5.05;;;3.53;;
25319;SDS011;13256;49.012;8.610;2023-08-12T07:51:05;6.80;;;3.53;;
25319;SDS011;13256;49.012;8.610;2023-08-12T07:53:38;6.50;;;4.03;;
25319;SDS011;13256;49.012;8.610;2023-08-12T07:56:08;6.63;;;3.50;;
25319;SDS011;13256;49.012;8.610;2023-08-12T07:58:44;7.18;;;3.22;;
25319;SDS011;13256;49.012;8.610;2023-08-12T08:01:19;5.60;;;3.67;;
25319;SDS011;13256;49.012;8.610;2023-08-12T08:03:56;6.95;;;3.47;;
25319;SDS011;13256;49.012;8.610;2023-08-12T08:06:26;6.10;;;3.83;;
25319;SDS011;13256;49.012;8.610;2023-08-12T08:08:58;4.72;;;3.72;;
25319;SDS011;13256;49.012;8.610;2023-08-12T08:11:26;4.35;;;3.10;;
25319;SDS011;13256;49.012;8.610;2023-08-12T08:13:59;5.72;;;3.95;;
25319;SDS011;13256;49.012;8.610;2023-08-12T08:16:33;5.13;;;3.50;;
25319;SDS011;13256;49.012;8.610;2023-08-12T08:19:01;11.48;;;3.33;;
25319;SDS011;13256;49.012;8.610;2023-08-12T08:21:29;7.53;;;4.03;;
25319;SDS011;13256;49.012;8.610;2023-08-12T08:23:56;4.95;;;3.65;;
25319;SDS011;13256;49.012;8.610;2023-08-12T08:26:23;8.50;;;3.75;;
25319;SDS011;13256;49.012;8.610;2023-08-12T08:28:49;8.70;;;3.50;;
25319;SDS011;13256;49.012;8.610;2023-08-12T08:31:22;9.48;;;3.45;;
25319;SDS011;13256;49.012;8.610;2023-08-12T08:33:52;6.07;;;3.80;;
25319;SDS011;13256;49.012;8.610;2023-08-12T08:36:21;6.00;;;3.65;;
25319;SDS011;13256;49.012;8.610;2023-08-12T08:38:52;5.13;;;3.60;;
25319;SDS011;13256;49.012;8.610;2023-08-12T08:43:50;6.50;;;3.42;;
25319;SDS011;13256;49.012;8.610;2023-08-12T08:46:21;3.83;;;3.20;;
25319;SDS011;13256;49.012;8.610;2023-08-12T08:51:54;4.97;;;3.53;;
25319;SDS011;13256;49.012;8.610;2023-08-12T08:54:26;7.13;;;3.65;;
25319;SDS011;13256;49.012;8.610;2023-08-12T08:56:59;5.88;;;3.03;;
25319;SDS011;13256;49.012;8.610;2023-08-12T08:59:38;7.20;;;3.45;;
25319;SDS011;13256;49.012;8.610;2023-08-12T09:02:09;8.07;;;4.07;;
25319;SDS011;13256;49.012;8.610;2023-08-12T09:07:47;8.05;;;4.22;;
25319;SDS011;13256;49.012;8.610;2023-08-12T09:18:57;5.18;;;3.50;;
25319;SDS011;13256;49.012;8.610;2023-08-12T09:21:28;4.53;;;3.20;;
25319;SDS011;13256;49.012;8.610;2023-08-12T09:23:56;5.10;;;3.35;;
25319;SDS011;13256;49.012;8.610;2023-08-12T09:36:36;6.70;;;3.58;;
25319;SDS011;13256;49.012;8.610;2023-08-12T09:51:39;4.13;;;2.90;;
25319;SDS011;13256;49.012;8.610;2023-08-12T10:39:40;6.13;;;3.92;;
25319;SDS011;13256;49.012;8.610;2023-08-12T10:42:39;4.28;;;2.70;;
25319;SDS011;13256;49.012;8.610;2023-08-12T11:02:05;4.25;;;3.10;;
25319;SDS011;13256;49.012;8.610;2023-08-12T11:05:07;4.38;;;3.17;;
25319;SDS011;13256;49.012;8.610;2023-08-12T11:08:28;6.25;;;3.08;;
25319;SDS011;13256;49.012;8.610;2023-08-12T11:14:01;7.85;;;3.30;;
25319;SDS011;13256;49.012;8.610;2023-08-12T11:17:42;4.03;;;2.63;;
25319;SDS011;13256;49.012;8.610;2023-08-12T11:24:09;4.30;;;2.97;;
25319;SDS011;13256;49.012;8.610;2023-08-12T11:26:37;8.98;;;3.55;;
25319;SDS011;13256;49.012;8.610;2023-08-12T11:29:11;5.10;;;3.25;;
25319;SDS011;13256;49.012;8.610;2023-08-12T11:31:54;5.07;;;3.13;;
25319;SDS011;13256;49.012;8.610;2023-08-12T11:37:49;6.20;;;3.47;;
25319;SDS011;13256;49.012;8.610;2023-08-12T11:40:24;5.75;;;3.53;;
25319;SDS011;13256;49.012;8.610;2023-08-12T11:42:55;5.13;;;3.38;;
25319;SDS011;13256;49.012;8.610;2023-08-12T13:18:20;5.88;;;3.35;;
25319;SDS011;13256;49.012;8.610;2023-08-12T13:20:54;5.38;;;3.45;;
25319;SDS011;13256;49.012;8.610;2023-08-12T13:23:46;6.25;;;3.60;;
25319;SDS011;13256;49.012;8.610;2023-08-12T13:26:20;4.45;;;2.90;;
25319;SDS011;13256;49.012;8.610;2023-08-12T13:28:48;4.25;;;3.42;;
25319;SDS011;13256;49.012;8.610;2023-08-12T13:31:15;5.55;;;3.15;;
25319;SDS011;13256;49.012;8.610;2023-08-12T13:33:45;4.93;;;3.25;;
25319;SDS011;13256;49.012;8.610;2023-08-12T13:36:14;4.45;;;3.00;;
25319;SDS011;13256;49.012;8.610;2023-08-12T13:38:44;4.97;;;2.92;;
25319;SDS011;13256;49.012;8.610;2023-08-12T13:41:14;7.35;;;3.17;;
25319;SDS011;13256;49.012;8.610;2023-08-12T13:43:45;4.78;;;3.13;;
25319;SDS011;13256;49.012;8.610;2023-08-12T13:46:14;6.72;;;3.38;;
25319;SDS011;13256;49.012;8.610;2023-08-12T13:48:42;4.78;;;3.60;;
25319;SDS011;13256;49.012;8.610;2023-08-12T13:51:09;4.85;;;3.10;;
25319;SDS011;13256;49.012;8.610;2023-08-12T13:53:37;3.65;;;2.70;;
25319;SDS011;13256;49.012;8.610;2023-08-12T13:56:09;5.93;;;3.08;;
25319;SDS011;13256;49.012;8.610;2023-08-12T13:58:39;5.13;;;3.20;;
25319;SDS011;13256;49.012;8.610;2023-08-12T14:01:06;3.95;;;2.90;;
25319;SDS011;13256;49.012;8.610;2023-08-12T14:03:39;3.88;;;2.72;;
25319;SDS011;13256;49.012;8.610;2023-08-12T14:06:09;4.83;;;3.10;;
25319;SDS011;13256;49.012;8.610;2023-08-12T14:08:37;3.92;;;2.67;;
25319;SDS011;13256;49.012;8.610;2023-08-12T14:14:10;7.38;;;3.13;;
25319;SDS011;13256;49.012;8.610;2023-08-12T14:16:41;5.40;;;2.88;;
25319;SDS011;13256;49.012;8.610;2023-08-12T14:19:15;5.75;;;2.95;;
25319;SDS011;13256;49.012;8.610;2023-08-12T14:21:48;4.15;;;3.10;;
25319;SDS011;13256;49.012;8.610;2023-08-12T14:35:11;3.28;;;2.67;;
25319;SDS011;13256;49.012;8.610;2023-08-12T14:38:50;5.10;;;3.03;;
25319;SDS011;13256;49.012;8.610;2023-08-12T14:41:23;4.05;;;2.88;;
25319;SDS011;13256;49.012;8.610;2023-08-12T14:44:02;4.32;;;3.05;;
25319;SDS011;13256;49.012;8.610;2023-08-12T14:50:55;4.05;;;2.72;;
25319;SDS011;13256;49.012;8.610;2023-08-12T14:59:55;7.20;;;3.20;;
25319;SDS011;13256;49.012;8.610;2023-08-12T15:02:22;4.57;;;2.90;;
25319;SDS011;13256;49.012;8.610;2023-08-12T15:04:59;7.88;;;3.35;;
25319;SDS011;13256;49.012;8.610;2023-08-12T15:18:58;10.73;;;4.97;;
25319;SDS011;13256;49.012;8.610;2023-08-12T15:21:42;12.52;;;4.45;;
25319;SDS011;13256;49.012;8.610;2023-08-12T15:24:34;10.02;;;4.43;;
25319;SDS011;13256;49.012;8.610;2023-08-12T15:27:08;10.50;;;4.47;;
25319;SDS011;13256;49.012;8.610;2023-08-12T15:29:49;8.00;;;4.23;;
25319;SDS011;13256;49.012;8.610;2023-08-12T15:32:16;10.40;;;4.95;;
25319;SDS011;13256;49.012;8.610;2023-08-12T15:35:12;13.02;;;5.13;;
25319;SDS011;13256;49.012;8.610;2023-08-12T15:37:50;10.38;;;4.10;;
25319;SDS011;13256;49.012;8.610;2023-08-12T15:43:56;7.30;;;3.17;;
25319;SDS011;13256;49.012;8.610;2023-08-12T15:46:23;4.65;;;3.00;;
25319;SDS011;13256;49.012;8.610;2023-08-12T15:52:05;4.20;;;2.30;;
25319;SDS011;13256;49.012;8.610;2023-08-12T16:00:56;5.00;;;3.58;;
25319;SDS011;13256;49.012;8.610;2023-08-12T16:04:02;5.35;;;2.97;;
25319;SDS011;13256;49.012;8.610;2023-08-12T16:06:33;9.00;;;3.22;;
25319;SDS011;13256;49.012;8.610;2023-08-12T16:09:01;5.13;;;2.88;;
25319;SDS011;13256;49.012;8.610;2023-08-12T16:11:47;4.72;;;3.15;;
25319;SDS011;13256;49.012;8.610;2023-08-12T16:14:14;5.75;;;2.35;;
25319;SDS011;13256;49.012;8.610;2023-08-12T16:16:41;3.88;;;2.55;;
25319;SDS011;13256;49.012;8.610;2023-08-12T16:24:39;5.20;;;2.60;;
25319;SDS011;13256;49.012;8.610;2023-08-12T16:30:01;3.95;;;2.58;;
25319;SDS011;13256;49.012;8.610;2023-08-12T16:35:23;5.03;;;2.80;;
25319;SDS011;13256;49.012;8.610;2023-08-12T16:37:55;7.20;;;3.00;;
25319;SDS011;13256;49.012;8.610;2023-08-12T16:40:22;4.80;;;2.72;;
25319;SDS011;13256;49.012;8.610;2023-08-12T16:45:44;4.22;;;2.35;;
25319;SDS011;13256;49.012;8.610;2023-08-12T16:48:10;10.85;;;2.90;;
25319;SDS011;13256;49.012;8.610;2023-08-12T16:50:37;4.13;;;2.72;;
25319;SDS011;13256;49.012;8.610;2023-08-12T16:53:04;4.43;;;2.80;;
25319;SDS011;13256;49.012;8.610;2023-08-12T16:55:31;8.55;;;4.45;;
25319;SDS011;13256;49.012;8.610;2023-08-12T16:58:01;4.85;;;2.47;;
25319;SDS011;13256;49.012;8.610;2023-08-12T17:00:53;4.80;;;2.30;;
25319;SDS011;13256;49.012;8.610;2023-08-12T17:03:22;2.95;;;2.20;;
25319;SDS011;13256;49.012;8.610;2023-08-12T17:05:55;4.20;;;2.38;;
25319;SDS011;13256;49.012;8.610;2023-08-12T17:08:24;5.57;;;2.28;;
25319;SDS011;13256;49.012;8.610;2023-08-12T17:10:56;4.32;;;2.65;;
25319;SDS011;13256;49.012;8.610;2023-08-12T17:13:24;4.28;;;3.00;;
25319;SDS011;13256;49.012;8.610;2023-08-12T17:15:53;4.13;;;2.50;;
25319;SDS011;13256;49.012;8.610;2023-08-12T17:21:14;5.97;;;2.50;;
25319;SDS011;13256;49.012;8.610;2023-08-12T17:23:44;5.75;;;2.60;;
25319;SDS011;13256;49.012;8.610;2023-08-12T17:26:16;4.25;;;2.75;;
25319;SDS011;13256;49.012;8.610;2023-08-12T17:31:37;4.95;;;2.60;;
25319;SDS011;13256;49.012;8.610;2023-08-12T17:34:08;5.13;;;2.45;;
25319;SDS011;13256;49.012;8.610;2023-08-12T17:36:36;6.28;;;2.30;;
25319;SDS011;13256;49.012;8.610;2023-08-12T17:39:06;3.63;;;2.53;;
25319;SDS011;13256;49.012;8.610;2023-08-12T17:41:36;4.47;;;2.65;;
25319;SDS011;13256;49.012;8.610;2023-08-12T17:44:03;3.30;;;2.22;;
25319;SDS011;13256;49.012;8.610;2023-08-12T17:46:58;3.85;;;2.45;;
25319;SDS011;13256;49.012;8.610;2023-08-12T17:49:25;4.13;;;2.22;;
25319;SDS011;13256;49.012;8.610;2023-08-12T17:51:53;6.20;;;2.53;;
25319;SDS011;13256;49.012;8.610;2023-08-12T17:54:27;6.22;;;2.75;;
25319;SDS011;13256;49.012;8.610;2023-08-12T17:57:08;3.42;;;2.40;;
25319;SDS011;13256;49.012;8.610;2023-08-12T17:59:37;4.72;;;2.67;;
25319;SDS011;13256;49.012;8.610;2023-08-12T18:02:05;4.78;;;2.67;;
25319;SDS011;13256;49.012;8.610;2023-08-12T18:04:34;5.47;;;2.95;;
25319;SDS011;13256;49.012;8.610;2023-08-12T18:07:08;6.40;;;2.85;;
25319;SDS011;13256;49.012;8.610;2023-08-12T18:09:34;4.05;;;2.72;;
25319;SDS011;13256;49.012;8.610;2023-08-12T18:12:08;4.13;;;2.85;;
25319;SDS011;13256;49.012;8.610;2023-08-12T18:14:36;5.13;;;2.85;;
25319;SDS011;13256;49.012;8.610;2023-08-12T18:17:07;3.53;;;2.30;;
25319;SDS011;13256;49.012;8.610;2023-08-12T18:19:35;3.15;;;2.40;;
25319;SDS011;13256;49.012;8.610;2023-08-12T18:22:09;9.00;;;2.88;;
25319;SDS011;13256;49.012;8.610;2023-08-12T18:24:38;4.75;;;2.45;;
25319;SDS011;13256;49.012;8.610;2023-08-12T18:38:36;5.88;;;3.08;;
25319;SDS011;13256;49.012;8.610;2023-08-12T18:41:03;5.70;;;3.50;;
25319;SDS011;13256;49.012;8.610;2023-08-12T18:43:31;6.65;;;3.92;;
25319;SDS011;13256;49.012;8.610;2023-08-12T18:46:02;3.53;;;2.97;;
25319;SDS011;13256;49.012;8.610;2023-08-12T18:48:29;6.33;;;3.13;;
25319;SDS011;13256;49.012;8.610;2023-08-12T18:50:58;5.60;;;2.83;;
25319;SDS011;13256;49.012;8.610;2023-08-12T18:53:28;5.70;;;2.95;;
25319;SDS011;13256;49.012;8.610;2023-08-12T18:55:56;5.30;;;3.58;;
25319;SDS011;13256;49.012;8.610;2023-08-12T19:01:22;11.02;;;4.57;;
25319;SDS011;13256;49.012;8.610;2023-08-12T19:03:52;7.35;;;4.20;;
25319;SDS011;13256;49.012;8.610;2023-08-12T19:06:21;7.55;;;4.50;;
25319;SDS011;13256;49.012;8.610;2023-08-12T19:08:53;7.57;;;3.75;;
25319;SDS011;13256;49.012;8.610;2023-08-12T19:11:21;6.40;;;4.13;;
25319;SDS011;13256;49.012;8.610;2023-08-12T19:13:49;6.35;;;3.97;;
25319;SDS011;13256;49.012;8.610;2023-08-12T19:22:43;4.13;;;3.10;;
25319;SDS011;13256;49.012;8.610;2023-08-12T19:25:12;4.18;;;3.42;;
25319;SDS011;13256;49.012;8.610;2023-08-12T19:27:40;4.68;;;3.45;;
25319;SDS011;13256;49.012;8.610;2023-08-12T19:33:10;5.88;;;3.95;;
25319;SDS011;13256;49.012;8.610;2023-08-12T19:35:37;7.30;;;3.65;;
25319;SDS011;13256;49.012;8.610;2023-08-12T19:38:12;4.22;;;3.45;;
25319;SDS011;13256;49.012;8.610;2023-08-12T19:40:45;5.03;;;3.38;;
25319;SDS011;13256;49.012;8.610;2023-08-12T19:43:13;8.30;;;3.58;;
25319;SDS011;13256;49.012;8.610;2023-08-12T19:45:46;5.80;;;3.40;;
25319;SDS011;13256;49.012;8.610;2023-08-12T19:48:27;7.30;;;3.50;;
25319;SDS011;13256;49.012;8.610;2023-08-12T19:53:27;9.35;;;3.38;;
25319;SDS011;13256;49.012;8.610;2023-08-12T19:55:57;6.90;;;3.70;;
25319;SDS011;13256;49.012;8.610;2023-08-12T19:58:25;9.35;;;3.55;;
25319;SDS011;13256;49.012;8.610;2023-08-12T20:00:56;5.30;;;3.33;;
25319;SDS011;13256;49.012;8.610;2023-08-12T20:03:40;5.57;;;3.80;;
25319;SDS011;13256;49.012;8.610;2023-08-12T20:06:15;6.05;;;3.15;;
25319;SDS011;13256;49.012;8.610;2023-08-12T20:08:45;7.30;;;3.28;;
25319;SDS011;13256;49.012;8.610;2023-08-12T20:11:12;6.47;;;3.33;;
25319;SDS011;13256;49.012;8.610;2023-08-12T20:13:40;5.53;;;3.20;;
25319;SDS011;13256;49.012;8.610;2023-08-12T20:16:08;6.68;;;3.58;;
25319;SDS011;13256;49.012;8.610;2023-08-12T20:18:38;3.47;;;2.97;;
25319;SDS011;13256;49.012;8.610;2023-08-12T20:21:07;6.95;;;3.83;;
25319;SDS011;13256;49.012;8.610;2023-08-12T20:23:36;6.13;;;3.25;;
25319;SDS011;13256;49.012;8.610;2023-08-12T20:26:13;9.23;;;3.45;;
25319;SDS011;13256;49.012;8.610;2023-08-12T20:28:40;5.72;;;3.25;;
25319;SDS011;13256;49.012;8.610;2023-08-12T20:31:07;3.83;;;2.95;;
25319;SDS011;13256;49.012;8.610;2023-08-12T20:33:37;10.38;;;3.70;;
25319;SDS011;13256;49.012;8.610;2023-08-12T20:36:05;4.63;;;3.30;;
25319;SDS011;13256;49.012;8.610;2023-08-12T20:38:40;4.50;;;3.25;;
25319;SDS011;13256;49.012;8.610;2023-08-12T20:41:09;6.07;;;3.78;;